Tropical Cyclones
[Index]
Main Index Home Page Stock Weather Photos Extreme Storms Discussion Storm News and Storm Chasing Reports Tropical Cyclones / Hurricanes / Typhoons Weather Data and Links Wild Fires / Bushfires Weather Observation Techniques Weather Picture Catalogue Tornado Pictures and Reports Stock Video Footage and DVDs for sale
Season 2007-2008 Tropical Cyclone LEE-ARIEL Track Map
Season 2007-2008 Summaries: [BoM-AU] [JTWC-AU] [JTWC-SIO] [JTWC-SPAC] [JTWC-SH]
<<- Previous TC | JTWC 2007-2008 Season | Next TC ->>

click for intensity scale information  Lat/long Grid: Show Hide

 Date Labels: Show Hide

Joint Typhoon Warning Centre Cyclone Data

Name: LEE-ARIEL

12 Nov 2007 18:00 UTC to 24 Nov 2007 00:00 UTC

    date/time    lat    long     hPa   cat  kts
2007-11-12 18    6.2    93.2    1010         15          
2007-11-13 00    6.4    92.6    1010         15          
2007-11-13 06    6.3    92.0    1010         15          
2007-11-13 12    6.6    91.4    1010         15          
2007-11-13 18    7.1    91.1    1002         25          
2007-11-14 00    7.8    91.2    1004         25          
2007-11-14 06    8.4    91.6    1000         30          
2007-11-14 12    9.3    91.4     993    1    40          
2007-11-14 18    9.9    91.0     989    1    45          
2007-11-15 00   10.5    90.6     989    1    45          
2007-11-15 06   10.9    90.2     982    2    55          
2007-11-15 06   10.9    90.2     982    2    55          
2007-11-15 12   11.3    89.8     982    2    55          
2007-11-15 12   11.3    89.8     982    2    55          
2007-11-15 18   11.6    89.4     978    2    60          
2007-11-15 18   11.6    89.4     978    2    60          
2007-11-16 00   12.0    89.1     978    2    60          
2007-11-16 00   12.0    89.1     978    2    60          
2007-11-16 06   11.9    88.6     978    2    60          
2007-11-16 06   11.9    88.6     978    2    60          
2007-11-16 12   11.7    88.2     982    2    55          
2007-11-16 12   11.7    88.2     982    2    55          
2007-11-16 18   11.6    87.9     982    2    55          
2007-11-16 18   11.6    87.9     982    2    55          
2007-11-17 00   11.5    87.7     985    1    50          
2007-11-17 00   11.5    87.7     985    1    50          
2007-11-17 06   11.7    87.5     993    1    45          
2007-11-17 12   12.0    87.4     989    1    40          
2007-11-17 18   11.9    87.1     996         35          
2007-11-18 00   12.1    86.9     996         35          
2007-11-18 06   12.4    87.1     996         35          
2007-11-18 12   12.8    87.2     996         35          
2007-11-18 18   13.3    87.6    1000         30          
2007-11-19 00   13.6    88.1    1000         30          
2007-11-19 06   13.9    88.5    1000         30          
2007-11-19 12   13.9    89.0     996         35          
2007-11-19 18   13.9    89.4    1000         30          
2007-11-20 00   13.8    89.7    1000         30          
2007-11-20 06   13.6    90.1    1000         30          
2007-11-20 12   13.4    90.3    1004         25          
2007-11-20 18   13.1    90.4    1004         25          
2007-11-21 00   12.8    90.5    1004         25          
2007-11-21 06   12.6    90.5    1007         20          
2007-11-21 12   12.4    90.5    1007         20          
2007-11-21 18   12.2    90.5    1007         20          
2007-11-22 00   12.0    90.5    1007         20          
2007-11-22 06   11.8    90.4    1007         20          
2007-11-22 12   11.6    90.3    1007         20          
2007-11-22 18   11.5    90.1    1007         20          
2007-11-23 00   11.4    89.9    1007         20          
2007-11-23 06   11.2    89.6    1007         20          
2007-11-23 12   11.1    89.3    1007         20          
2007-11-23 18   11.3    89.1    1007         20          
2007-11-24 00   11.6    89.2    1007         20          
Winds are 1-min average.

Tropical cyclone tracks developed by Michael Bath using data from the Joint Typhoon Warning Centre Best Tracks and Google Maps.


[Australian Severe Weather index] [Copyright Notice] [Email Contacts] [Search This Site] [Privacy Policy]
Document: tropical_cyclone_lee-ariel.htm Updated: 28 June 2017